Angola, Indiana
Current Conditions -  °F | °C
As of 6:55 PM on Saturday 20 Dec 2014 (Local Time) from KANQ Reporting Station
Overcast Overcast  
Wind Chill: 30°   Ceiling: 2900
Heat Index: 30°   Visibility: 10mi
Dew Point: 27°   Wind: 0mph
Humidity: 86%   Direction: NA
Pressure: 30.26"   Gusts: NA
Location:  41.63°N, 85°W
Report Text: KANQ 202355Z AUTO 00000KT 10SM OVC029 M01/M03 A3026 RMK
Loading
Personal Weather Stations






























Interactive Weather Map New forecast layout! Learn more

10-Day Weather Forecast

Advertisements
Track Severe Weather on mobile